Time;durP1;ratioP1;P1;durP2;ratioP2;P2;SDS_P1;SDS_P2;PMS_P1;PMS_P2;Temp;Humidity;BMP_temperature;BMP_pressure;BME280_temperature;BME280_humidity;BME280_pressure;Samples;Min_cycle;Max_cycle;Signal;HPM_P1;HPM_P2
2022/01/20 00:01:56;;;;;;;;;;;;;;;;;;6216631;23;20227;-78
2022/01/20 00:04:35;;;;;;;;;;;;;;;;;;6216396;23;20231;-78
2022/01/20 00:26:11;;;;;;;;;;;;;;;;;;6216508;23;19911;-77
2022/01/20 00:28:41;;;;;;;;;;;;;;;;;;6189887;23;19979;-78
2022/01/20 00:33:52;;;;;;;;;;;;;;;;;;6216149;23;20461;-78
2022/01/20 00:39:03;;;;;;;;;;;;;;;;;;6216149;23;20429;-79
2022/01/20 00:41:29;;;;;;;;;;;;;;;;;;6216354;23;19911;-78
2022/01/20 00:43:54;;;;;;;;;;;;;;;;;;6216573;23;19907;-77
2022/01/20 00:46:20;;;;;;;;;;;;;;;;;;6216757;23;20237;-77
2022/01/20 00:48:46;;;;;;;;;;;;;;;;;;6216256;23;19904;-77
2022/01/20 00:51:12;;;;;;;;;;;;;;;;;;6216835;23;19903;-77
2022/01/20 00:53:43;;;;;;;;;;;;;;;;;;6216730;23;20306;-77
2022/01/20 00:56:09;;;;;;;;;;;;;;;;;;6215799;23;19911;-77
2022/01/20 00:58:35;;;;;;;;;;;;;;;;;;6217006;23;19904;-77
2022/01/20 01:01:01;;;;;;;;;;;;;;;;;;6215567;23;19908;-77
2022/01/20 01:03:27;;;;;;;;;;;;;;;;;;6216246;23;19911;-78
2022/01/20 01:08:42;;;;;;;;;;;;;;;;;;6124254;23;19952;-76
2022/01/20 01:11:08;;;;;;;;;;;;;;;;;;6124207;23;19905;-77
2022/01/20 01:13:34;;;;;;;;;;;;;;;;;;6124462;23;20362;-77
2022/01/20 01:16:00;;;;;;;;;;;;;;;;;;6123984;23;19905;-76
2022/01/20 01:22:04;;;;;;;;;;;;;;;;;;6124039;23;19916;-77
2022/01/20 01:23:57;;;;;;;;;;;;;;;;;;6113800;23;19948;-77
2022/01/20 01:26:27;;;;;;;;;;;;;;;;;;6124655;23;19956;-77
2022/01/20 01:28:53;;;;;;;;;;;;;;;;;;6124571;23;19976;-77
2022/01/20 01:33:55;;;;;;;;;;;;;;;;;;6124343;23;20344;-77
2022/01/20 01:36:22;;;;;;;;;;;;;;;;;;6124138;23;19905;-77
2022/01/20 01:38:48;;;;;;;;;;;;;;;;;;6124136;23;19912;-78
2022/01/20 01:41:15;;;;;;;;;;;;;;;;;;6123718;23;19921;-77
2022/01/20 01:43:42;;;;;;;;;;;;;;;;;;6124637;23;19905;-77
2022/01/20 01:46:08;;;;;;;;;;;;;;;;;;6186716;23;20242;-77
2022/01/20 01:48:34;;;;;;;;;;;;;;;;;;6215863;23;19930;-77
2022/01/20 01:51:00;;;;;;;;;;;;;;;;;;6215652;23;19904;-77
2022/01/20 01:53:26;;;;;;;;;;;;;;;;;;6215697;23;19908;-77
2022/01/20 01:55:52;;;;;;;;;;;;;;;;;;6216547;23;19934;-77
2022/01/20 01:58:18;;;;;;;;;;;;;;;;;;6215882;23;19939;-77
2022/01/20 02:00:44;;;;;;;;;;;;;;;;;;6215334;23;20353;-77
2022/01/20 02:03:12;;;;;;;;;;;;;;;;;;6215670;23;19919;-78
2022/01/20 02:05:51;;;;;;;;;;;;;;;;;;6216076;23;19908;-77
2022/01/20 02:08:28;;;;;;;;;;;;;;;;;;6188836;23;20234;-77
2022/01/20 02:19:08;;;;;;;;;;;;;;;;;;6215970;23;19958;-77
2022/01/20 02:21:34;;;;;;;;;;;;;;;;;;6215907;23;19935;-78
2022/01/20 02:24:00;;;;;;;;;;;;;;;;;;6215373;23;19904;-77
2022/01/20 02:26:26;;;;;;;;;;;;;;;;;;6215499;23;20602;-77
2022/01/20 02:28:52;;;;;;;;;;;;;;;;;;6215346;23;19904;-77
2022/01/20 02:31:18;;;;;;;;;;;;;;;;;;6215269;23;19927;-77
2022/01/20 02:33:43;;;;;;;;;;;;;;;;;;6189231;23;19990;-77
2022/01/20 02:36:11;;;;;;;;;;;;;;;;;;6215463;23;19904;-76
2022/01/20 02:38:41;;;;;;;;;;;;;;;;;;6215395;23;19979;-77
2022/01/20 02:46:37;;;;;;;;;;;;;;;;;;6215842;23;19927;-76
2022/01/20 02:49:03;;;;;;;;;;;;;;;;;;6215702;23;19904;-77
2022/01/20 02:51:29;;;;;;;;;;;;;;;;;;6214929;23;19971;-77
2022/01/20 02:53:55;;;;;;;;;;;;;;;;;;6215394;23;19915;-77
2022/01/20 02:56:21;;;;;;;;;;;;;;;;;;6215591;23;19904;-77
2022/01/20 02:58:46;;;;;;;;;;;;;;;;;;6215178;23;19911;-77
2022/01/20 03:01:12;;;;;;;;;;;;;;;;;;6215470;23;19908;-78
2022/01/20 03:03:38;;;;;;;;;;;;;;;;;;6215629;23;19904;-75
2022/01/20 03:06:04;;;;;;;;;;;;;;;;;;6215723;23;19931;-77
2022/01/20 03:08:30;;;;;;;;;;;;;;;;;;6215170;23;19912;-77
2022/01/20 03:10:56;;;;;;;;;;;;;;;;;;6215796;23;19912;-77
2022/01/20 03:13:22;;;;;;;;;;;;;;;;;;6215585;23;19904;-77
2022/01/20 03:15:48;;;;;;;;;;;;;;;;;;6217636;23;19904;-77
2022/01/20 03:18:14;;;;;;;;;;;;;;;;;;6217208;23;20226;-77
2022/01/20 03:20:40;;;;;;;;;;;;;;;;;;6217467;23;19986;-77
2022/01/20 03:23:05;;;;;;;;;;;;;;;;;;6217550;23;19974;-77
2022/01/20 03:25:31;;;;;;;;;;;;;;;;;;6217573;23;19966;-77
2022/01/20 03:27:57;;;;;;;;;;;;;;;;;;6216265;23;20318;-77
2022/01/20 03:30:23;;;;;;;;;;;;;;;;;;6217216;23;19904;-77
2022/01/20 03:32:49;;;;;;;;;;;;;;;;;;6190631;23;19958;-77
2022/01/20 03:35:15;;;;;;;;;;;;;;;;;;6217395;23;19908;-77
2022/01/20 03:37:41;;;;;;;;;;;;;;;;;;6217172;23;19904;-77
2022/01/20 03:40:07;;;;;;;;;;;;;;;;;;6216505;23;19916;-77
2022/01/20 03:42:33;;;;;;;;;;;;;;;;;;6190111;23;19904;-77
2022/01/20 03:44:59;;;;;;;;;;;;;;;;;;6216930;23;19915;-77
2022/01/20 03:47:25;;;;;;;;;;;;;;;;;;6217021;23;19911;-77
2022/01/20 03:50:07;;;;;;;;;;;;;;;;;;6217116;23;19904;-77
2022/01/20 03:52:33;;;;;;;;;;;;;;;;;;6217097;23;20311;-77
2022/01/20 03:54:59;;;;;;;;;;;;;;;;;;6216474;23;19908;-76
2022/01/20 03:57:25;;;;;;;;;;;;;;;;;;6216550;23;19957;-77
2022/01/20 03:59:51;;;;;;;;;;;;;;;;;;6217056;23;20043;-77
2022/01/20 04:02:16;;;;;;;;;;;;;;;;;;6217140;23;20318;-77
2022/01/20 04:04:42;;;;;;;;;;;;;;;;;;6216460;23;19935;-77
2022/01/20 04:07:08;;;;;;;;;;;;;;;;;;6189689;23;20007;-75
2022/01/20 04:09:34;;;;;;;;;;;;;;;;;;6216397;23;19971;-77
2022/01/20 04:12:00;;;;;;;;;;;;;;;;;;6217103;23;19911;-77
2022/01/20 04:14:28;;;;;;;;;;;;;;;;;;6216980;23;19904;-77
2022/01/20 04:19:23;;;;;;;;;;;;;;;;;;6216803;23;20323;-77
2022/01/20 04:21:49;;;;;;;;;;;;;;;;;;6216973;23;19979;-77
2022/01/20 04:24:15;;;;;;;;;;;;;;;;;;6216283;23;20012;-77
2022/01/20 04:26:43;;;;;;;;;;;;;;;;;;6216385;23;19911;-77
2022/01/20 04:29:09;;;;;;;;;;;;;;;;;;6189841;23;19999;-77
2022/01/20 04:31:35;;;;;;;;;;;;;;;;;;6216429;23;19904;-77
2022/01/20 04:34:01;;;;;;;;;;;;;;;;;;6217001;23;19986;-76
2022/01/20 04:36:27;;;;;;;;;;;;;;;;;;6216675;23;19900;-77
2022/01/20 04:38:53;;;;;;;;;;;;;;;;;;6216178;23;19904;-76
2022/01/20 04:41:20;;;;;;;;;;;;;;;;;;6216251;23;19916;-78
2022/01/20 04:43:46;;;;;;;;;;;;;;;;;;6216323;23;20289;-78
2022/01/20 04:59:36;;;;;;;;;;;;;;;;;;6216436;23;19911;-75
2022/01/20 05:02:02;;;;;;;;;;;;;;;;;;6216476;23;19904;-77
2022/01/20 05:04:28;;;;;;;;;;;;;;;;;;6216534;23;19911;-77
2022/01/20 05:06:56;;;;;;;;;;;;;;;;;;6216403;23;19958;-77
2022/01/20 05:09:22;;;;;;;;;;;;;;;;;;6216019;23;19927;-77
2022/01/20 05:11:52;;;;;;;;;;;;;;;;;;6215980;23;19904;-76
2022/01/20 05:14:18;;;;;;;;;;;;;;;;;;6216145;23;19904;-79
2022/01/20 05:16:43;;;;;;;;;;;;;;;;;;6216299;23;19904;-77
2022/01/20 05:19:09;;;;;;;;;;;;;;;;;;6216219;23;20377;-74
2022/01/20 05:21:35;;;;;;;;;;;;;;;;;;6215857;23;19914;-75
2022/01/20 05:24:01;;;;;;;;;;;;;;;;;;6215695;23;19943;-76
2022/01/20 05:26:27;;;;;;;;;;;;;;;;;;6215972;23;19983;-76
2022/01/20 05:28:53;;;;;;;;;;;;;;;;;;6216043;23;19982;-76
2022/01/20 05:31:19;;;;;;;;;;;;;;;;;;6215321;23;19987;-76
2022/01/20 05:33:45;;;;;;;;;;;;;;;;;;6189099;23;20042;-76
2022/01/20 05:36:11;;;;;;;;;;;;;;;;;;6215079;23;20051;-76
2022/01/20 05:38:36;;;;;;;;;;;;;;;;;;6215051;23;19959;-80
2022/01/20 05:41:02;;;;;;;;;;;;;;;;;;6215025;23;20246;-76
2022/01/20 05:43:28;;;;;;;;;;;;;;;;;;6215554;23;19904;-76
2022/01/20 05:45:54;;;;;;;;;;;;;;;;;;6215322;23;19904;-76
2022/01/20 05:48:32;;;;;;;;;;;;;;;;;;6215806;23;19907;-76
2022/01/20 05:50:58;;;;;;;;;;;;;;;;;;6215527;23;19950;-76
2022/01/20 05:53:23;;;;;;;;;;;;;;;;;;6215591;23;19904;-76
2022/01/20 05:55:49;;;;;;;;;;;;;;;;;;6215532;23;19919;-76
2022/01/20 05:58:15;;;;;;;;;;;;;;;;;;6215527;23;19904;-75
2022/01/20 06:00:42;;;;;;;;;;;;;;;;;;6215598;23;19911;-76
2022/01/20 06:05:54;;;;;;;;;;;;;;;;;;6214866;23;19911;-76
2022/01/20 06:08:20;;;;;;;;;;;;;;;;;;6215207;23;19904;-76
2022/01/20 06:10:46;;;;;;;;;;;;;;;;;;6215224;23;19916;-76
2022/01/20 06:13:12;;;;;;;;;;;;;;;;;;6215727;23;19903;-76
2022/01/20 06:15:38;;;;;;;;;;;;;;;;;;6215912;23;20268;-76
2022/01/20 06:18:04;;;;;;;;;;;;;;;;;;6215318;23;20284;-77
2022/01/20 06:20:30;;;;;;;;;;;;;;;;;;6215289;23;20329;-76
2022/01/20 06:22:56;;;;;;;;;;;;;;;;;;6221606;23;19931;-79
2022/01/20 06:25:22;;;;;;;;;;;;;;;;;;6215485;23;19947;-76
2022/01/20 06:27:48;;;;;;;;;;;;;;;;;;6215319;23;19911;-76
2022/01/20 06:30:14;;;;;;;;;;;;;;;;;;6215814;23;19904;-77
2022/01/20 06:32:39;;;;;;;;;;;;;;;;;;6215511;23;19911;-76
2022/01/20 06:35:05;;;;;;;;;;;;;;;;;;6214346;23;19904;-77
2022/01/20 06:37:31;;;;;;;;;;;;;;;;;;6214371;23;19904;-76
2022/01/20 06:39:57;;;;;;;;;;;;;;;;;;6213975;23;20285;-76
2022/01/20 06:42:23;;;;;;;;;;;;;;;;;;6214456;23;19911;-77
2022/01/20 06:44:49;;;;;;;;;;;;;;;;;;6214395;23;19900;-76
2022/01/20 06:47:15;;;;;;;;;;;;;;;;;;6187600;23;20314;-77
2022/01/20 06:49:41;;;;;;;;;;;;;;;;;;6214460;23;19928;-76
2022/01/20 06:52:07;;;;;;;;;;;;;;;;;;6214054;23;19986;-76
2022/01/20 06:54:34;;;;;;;;;;;;;;;;;;6214395;23;20396;-76
2022/01/20 06:57:00;;;;;;;;;;;;;;;;;;6214095;23;19980;-76
2022/01/20 06:59:26;;;;;;;;;;;;;;;;;;6214308;23;19904;-77
2022/01/20 07:01:52;;;;;;;;;;;;;;;;;;6214515;23;19908;-76
2022/01/20 07:04:18;;;;;;;;;;;;;;;;;;6214191;23;19935;-76
2022/01/20 07:06:44;;;;;;;;;;;;;;;;;;6214226;23;19908;-77
2022/01/20 07:09:11;;;;;;;;;;;;;;;;;;6214234;23;19904;-76
2022/01/20 07:11:36;;;;;;;;;;;;;;;;;;6187581;23;19904;-76
2022/01/20 07:14:02;;;;;;;;;;;;;;;;;;6214611;23;20241;-79
2022/01/20 07:16:29;;;;;;;;;;;;;;;;;;6187898;23;19904;-79
2022/01/20 07:18:54;;;;;;;;;;;;;;;;;;6187491;23;19990;-79
2022/01/20 07:21:20;;;;;;;;;;;;;;;;;;6214441;23;19973;-79
2022/01/20 07:23:46;;;;;;;;;;;;;;;;;;6214493;23;19958;-79
2022/01/20 07:26:12;;;;;;;;;;;;;;;;;;6214102;23;19904;-79
2022/01/20 07:28:38;;;;;;;;;;;;;;;;;;6188159;23;20292;-79
2022/01/20 07:31:04;;;;;;;;;;;;;;;;;;6214022;23;20022;-79
2022/01/20 07:33:30;;;;;;;;;;;;;;;;;;6214071;23;19930;-79
2022/01/20 07:35:56;;;;;;;;;;;;;;;;;;6214494;23;19904;-79
2022/01/20 07:38:22;;;;;;;;;;;;;;;;;;6214325;23;20219;-79
2022/01/20 07:40:48;;;;;;;;;;;;;;;;;;6214012;23;19916;-79
2022/01/20 07:43:13;;;;;;;;;;;;;;;;;;6214083;23;19911;-79
2022/01/20 07:45:39;;;;;;;;;;;;;;;;;;6214133;23;19911;-79
2022/01/20 07:48:05;;;;;;;;;;;;;;;;;;6213587;23;19922;-79
2022/01/20 07:50:31;;;;;;;;;;;;;;;;;;6214687;23;19910;-79
2022/01/20 07:52:57;;;;;;;;;;;;;;;;;;6214168;23;19908;-78
2022/01/20 07:55:23;;;;;;;;;;;;;;;;;;6213882;23;19927;-78
2022/01/20 07:57:49;;;;;;;;;;;;;;;;;;6213957;23;19912;-78
2022/01/20 08:00:15;;;;;;;;;;;;;;;;;;6179862;23;19998;-78
2022/01/20 08:02:41;;;;;;;;;;;;;;;;;;6211719;23;19908;-78
2022/01/20 08:05:07;;;;;;;;;;;;;;;;;;6184918;23;20265;-79
2022/01/20 08:07:33;;;;;;;;;;;;;;;;;;6213215;23;19908;-78
2022/01/20 08:09:59;;;;;;;;;;;;;;;;;;6213562;23;20241;-78
2022/01/20 08:12:25;;;;;;;;;;;;;;;;;;6209094;23;19907;-78
2022/01/20 08:14:51;;;;;;;;;;;;;;;;;;6212167;23;19900;-78
2022/01/20 08:17:17;;;;;;;;;;;;;;;;;;6210297;23;19904;-78
2022/01/20 08:19:42;;;;;;;;;;;;;;;;;;6213853;23;19987;-79
2022/01/20 08:22:08;;;;;;;;;;;;;;;;;;6211297;23;20404;-80
2022/01/20 08:24:34;;;;;;;;;;;;;;;;;;6213500;23;19908;-79
2022/01/20 08:27:00;;;;;;;;;;;;;;;;;;6214292;23;19904;-79
2022/01/20 08:29:26;;;;;;;;;;;;;;;;;;6215758;23;19904;-79
2022/01/20 08:31:52;;;;;;;;;;;;;;;;;;6185389;23;19904;-79
2022/01/20 08:34:18;;;;;;;;;;;;;;;;;;6211138;23;19907;-78
2022/01/20 08:36:44;;;;;;;;;;;;;;;;;;6213927;23;19915;-79
2022/01/20 08:39:38;;;;;;;;;;;;;;;;;;6212435;23;19903;-79
2022/01/20 08:42:04;;;;;;;;;;;;;;;;;;6187342;23;19907;-79
2022/01/20 08:44:30;;;;;;;;;;;;;;;;;;6185368;23;19939;-78
2022/01/20 08:46:58;;;;;;;;;;;;;;;;;;6213515;23;20317;-78
2022/01/20 08:49:23;;;;;;;;;;;;;;;;;;6212765;23;19971;-78
2022/01/20 08:51:49;;;;;;;;;;;;;;;;;;6214670;23;20286;-78
2022/01/20 08:54:15;;;;;;;;;;;;;;;;;;6212326;23;19946;-78
2022/01/20 08:56:41;;;;;;;;;;;;;;;;;;6214833;23;19931;-78
2022/01/20 08:59:07;;;;;;;;;;;;;;;;;;6212973;23;20350;-78
2022/01/20 09:01:33;;;;;;;;;;;;;;;;;;6212878;23;19946;-79
2022/01/20 09:03:59;;;;;;;;;;;;;;;;;;6214901;23;19936;-78
2022/01/20 09:06:25;;;;;;;;;;;;;;;;;;6211773;23;20015;-79
2022/01/20 09:08:51;;;;;;;;;;;;;;;;;;6215127;23;19904;-78
2022/01/20 09:11:22;;;;;;;;;;;;;;;;;;6211113;23;19904;-78
2022/01/20 09:16:33;;;;;;;;;;;;;;;;;;6212145;23;20360;-78
2022/01/20 09:18:59;;;;;;;;;;;;;;;;;;6214508;23;19908;-79
2022/01/20 09:21:26;;;;;;;;;;;;;;;;;;6211753;23;19912;-79
2022/01/20 09:23:52;;;;;;;;;;;;;;;;;;6187829;23;20337;-79
2022/01/20 09:26:17;;;;;;;;;;;;;;;;;;6212008;23;20250;-79
2022/01/20 09:28:43;;;;;;;;;;;;;;;;;;6214703;23;20281;-79
2022/01/20 09:31:09;;;;;;;;;;;;;;;;;;6211766;23;19908;-79
2022/01/20 09:33:35;;;;;;;;;;;;;;;;;;6214544;23;19904;-78
2022/01/20 09:36:01;;;;;;;;;;;;;;;;;;6212775;23;19986;-79
2022/01/20 09:38:27;;;;;;;;;;;;;;;;;;6213525;23;19908;-78
2022/01/20 09:40:53;;;;;;;;;;;;;;;;;;6213368;23;19916;-78
2022/01/20 09:43:19;;;;;;;;;;;;;;;;;;6211046;23;19939;-78
2022/01/20 09:45:45;;;;;;;;;;;;;;;;;;6212084;23;19979;-78
2022/01/20 09:48:11;;;;;;;;;;;;;;;;;;6212528;23;19987;-79
2022/01/20 09:50:37;;;;;;;;;;;;;;;;;;6213140;23;19983;-79
2022/01/20 09:53:03;;;;;;;;;;;;;;;;;;6183745;23;19935;-79
2022/01/20 09:55:30;;;;;;;;;;;;;;;;;;6212056;23;19935;-79
2022/01/20 09:57:56;;;;;;;;;;;;;;;;;;6183996;23;19919;-79
2022/01/20 10:00:22;;;;;;;;;;;;;;;;;;6213239;23;19908;-79
2022/01/20 10:02:48;;;;;;;;;;;;;;;;;;6184179;23;19969;-79
2022/01/20 10:05:14;;;;;;;;;;;;;;;;;;6211361;23;20316;-79
2022/01/20 10:07:40;;;;;;;;;;;;;;;;;;6212468;23;19915;-81
2022/01/20 10:10:05;;;;;;;;;;;;;;;;;;6211978;23;19900;-81
2022/01/20 10:12:33;;;;;;;;;;;;;;;;;;6212722;23;19911;-77
2022/01/20 10:14:59;;;;;;;;;;;;;;;;;;6211179;23;20329;-76
2022/01/20 10:17:25;;;;;;;;;;;;;;;;;;6212330;23;19904;-76
2022/01/20 10:19:51;;;;;;;;;;;;;;;;;;6211190;23;19986;-76
2022/01/20 10:22:17;;;;;;;;;;;;;;;;;;6212590;23;19912;-77
2022/01/20 10:24:43;;;;;;;;;;;;;;;;;;6211778;23;19983;-77
2022/01/20 10:27:09;;;;;;;;;;;;;;;;;;6185927;23;19939;-74
2022/01/20 10:29:35;;;;;;;;;;;;;;;;;;6210500;23;20337;-76
2022/01/20 10:32:01;;;;;;;;;;;;;;;;;;6212932;23;19911;-76
2022/01/20 10:34:35;;;;;;;;;;;;;;;;;;6210654;23;19904;-76
2022/01/20 10:37:02;;;;;;;;;;;;;;;;;;6182816;23;19914;-76
2022/01/20 10:39:28;;;;;;;;;;;;;;;;;;6211303;23;19919;-76
2022/01/20 10:41:54;;;;;;;;;;;;;;;;;;6209896;23;20397;-76
2022/01/20 10:44:21;;;;;;;;;;;;;;;;;;6212410;23;19946;-76
2022/01/20 10:46:47;;;;;;;;;;;;;;;;;;6210112;23;20360;-76
2022/01/20 10:49:13;;;;;;;;;;;;;;;;;;6212380;23;19975;-76
2022/01/20 10:51:43;;;;;;;;;;;;;;;;;;6210443;23;20251;-76
2022/01/20 10:54:10;;;;;;;;;;;;;;;;;;6211687;23;20060;-76
2022/01/20 10:56:37;;;;;;;;;;;;;;;;;;6185986;23;20246;-76
2022/01/20 10:59:03;;;;;;;;;;;;;;;;;;6210901;23;19910;-76
2022/01/20 11:01:29;;;;;;;;;;;;;;;;;;6211868;23;19908;-76
2022/01/20 11:03:55;;;;;;;;;;;;;;;;;;6210584;23;20366;-76
2022/01/20 11:06:20;;;;;;;;;;;;;;;;;;6212668;23;19914;-76
2022/01/20 11:08:46;;;;;;;;;;;;;;;;;;6210280;23;19904;-76
2022/01/20 11:11:12;;;;;;;;;;;;;;;;;;6212513;23;19904;-76
2022/01/20 11:13:38;;;;;;;;;;;;;;;;;;6209375;23;20257;-76
2022/01/20 11:16:04;;;;;;;;;;;;;;;;;;6211560;23;19908;-76
2022/01/20 11:18:30;;;;;;;;;;;;;;;;;;6210069;23;19958;-76
2022/01/20 11:20:56;;;;;;;;;;;;;;;;;;6212347;23;20392;-76
2022/01/20 11:23:22;;;;;;;;;;;;;;;;;;6212163;23;19911;-76
2022/01/20 11:25:48;;;;;;;;;;;;;;;;;;6208869;23;19904;-77
2022/01/20 11:28:14;;;;;;;;;;;;;;;;;;6212775;23;19904;-76
2022/01/20 11:30:42;;;;;;;;;;;;;;;;;;6211047;23;19911;-76
2022/01/20 11:33:08;;;;;;;;;;;;;;;;;;6212635;23;19926;-76
2022/01/20 11:35:33;;;;;;;;;;;;;;;;;;6212302;23;20358;-77
2022/01/20 11:38:00;;;;;;;;;;;;;;;;;;6214799;23;20389;-76
2022/01/20 11:40:26;;;;;;;;;;;;;;;;;;6213276;23;19916;-78
2022/01/20 11:42:52;;;;;;;;;;;;;;;;;;6214897;23;19963;-78
2022/01/20 11:45:17;;;;;;;;;;;;;;;;;;6213095;23;19982;-78
2022/01/20 11:47:43;;;;;;;;;;;;;;;;;;6214825;23;20308;-78
2022/01/20 11:50:09;;;;;;;;;;;;;;;;;;6212816;23;19983;-78
2022/01/20 11:52:35;;;;;;;;;;;;;;;;;;6187498;23;19914;-78
2022/01/20 11:55:01;;;;;;;;;;;;;;;;;;6214915;23;19904;-78
2022/01/20 11:57:30;;;;;;;;;;;;;;;;;;6212725;23;19911;-79
2022/01/20 11:59:57;;;;;;;;;;;;;;;;;;6214679;23;19931;-78
2022/01/20 12:02:23;;;;;;;;;;;;;;;;;;6210556;23;19924;-79
2022/01/20 12:04:51;;;;;;;;;;;;;;;;;;6213263;23;20376;-77
2022/01/20 12:07:17;;;;;;;;;;;;;;;;;;6212296;23;19931;-78
2022/01/20 12:09:43;;;;;;;;;;;;;;;;;;6214204;23;20329;-79
2022/01/20 12:12:09;;;;;;;;;;;;;;;;;;6215949;23;19911;-79
2022/01/20 12:14:35;;;;;;;;;;;;;;;;;;6215894;23;19958;-79
2022/01/20 12:17:01;;;;;;;;;;;;;;;;;;6213299;23;19908;-79
2022/01/20 12:19:27;;;;;;;;;;;;;;;;;;6209523;23;19903;-78
2022/01/20 12:21:53;;;;;;;;;;;;;;;;;;6213652;23;20345;-78
2022/01/20 12:24:20;;;;;;;;;;;;;;;;;;6212678;23;19908;-78
2022/01/20 12:26:46;;;;;;;;;;;;;;;;;;6214185;23;20253;-78
2022/01/20 12:29:13;;;;;;;;;;;;;;;;;;6211750;23;19904;-78
2022/01/20 12:31:39;;;;;;;;;;;;;;;;;;6212509;23;19991;-79
2022/01/20 12:34:05;;;;;;;;;;;;;;;;;;6214559;23;19932;-79
2022/01/20 12:36:37;;;;;;;;;;;;;;;;;;6211474;23;19904;-79
2022/01/20 12:39:03;;;;;;;;;;;;;;;;;;6210877;23;20304;-79
2022/01/20 12:41:29;;;;;;;;;;;;;;;;;;6212584;23;20003;-79
2022/01/20 12:43:59;;;;;;;;;;;;;;;;;;6214755;23;19908;-79
2022/01/20 12:46:25;;;;;;;;;;;;;;;;;;6212944;23;19919;-78
2022/01/20 12:48:51;;;;;;;;;;;;;;;;;;6185412;23;19908;-80
2022/01/20 12:51:16;;;;;;;;;;;;;;;;;;6215215;23;20349;-79
2022/01/20 12:53:43;;;;;;;;;;;;;;;;;;6214909;23;19959;-79
2022/01/20 12:56:09;;;;;;;;;;;;;;;;;;6215307;23;19928;-79
2022/01/20 12:58:35;;;;;;;;;;;;;;;;;;6215609;23;19908;-79
2022/01/20 13:01:01;;;;;;;;;;;;;;;;;;6215130;23;19912;-79
2022/01/20 13:03:29;;;;;;;;;;;;;;;;;;6215293;23;20246;-78
2022/01/20 13:05:58;;;;;;;;;;;;;;;;;;6215089;23;19908;-79
2022/01/20 13:08:25;;;;;;;;;;;;;;;;;;6214800;23;19904;-79
2022/01/20 13:10:51;;;;;;;;;;;;;;;;;;6215633;23;20249;-79
2022/01/20 13:13:17;;;;;;;;;;;;;;;;;;6213731;23;19904;-78
2022/01/20 13:15:46;;;;;;;;;;;;;;;;;;6210394;23;19904;-79
2022/01/20 13:18:13;;;;;;;;;;;;;;;;;;6212797;23;19910;-78
2022/01/20 13:20:42;;;;;;;;;;;;;;;;;;6211248;23;19915;-79
2022/01/20 13:23:54;;;;;;;;;;;;;;;;;;6187275;23;19951;-78
2022/01/20 13:25:53;;;;;;;;;;;;;;;;;;6210967;23;20282;-78
2022/01/20 13:28:19;;;;;;;;;;;;;;;;;;6213877;23;19908;-78
2022/01/20 13:30:48;;;;;;;;;;;;;;;;;;6211513;23;19912;-79
2022/01/20 13:33:14;;;;;;;;;;;;;;;;;;6213900;23;19953;-80
2022/01/20 13:35:41;;;;;;;;;;;;;;;;;;6211009;23;19983;-79
2022/01/20 13:38:07;;;;;;;;;;;;;;;;;;6214221;23;19911;-79
2022/01/20 13:40:33;;;;;;;;;;;;;;;;;;6213209;23;19966;-79
2022/01/20 13:45:44;;;;;;;;;;;;;;;;;;6213139;23;19951;-79
2022/01/20 13:48:10;;;;;;;;;;;;;;;;;;6211399;23;19907;-79
2022/01/20 13:50:36;;;;;;;;;;;;;;;;;;6212966;23;20388;-79
2022/01/20 13:53:01;;;;;;;;;;;;;;;;;;6211971;23;19908;-79
2022/01/20 13:55:27;;;;;;;;;;;;;;;;;;6213557;23;19904;-79
2022/01/20 13:57:53;;;;;;;;;;;;;;;;;;6211795;23;19904;-79
2022/01/20 14:00:19;;;;;;;;;;;;;;;;;;6213139;23;20626;-79
2022/01/20 14:02:49;;;;;;;;;;;;;;;;;;6211668;23;19908;-79
2022/01/20 14:05:15;;;;;;;;;;;;;;;;;;6212298;23;19904;-79
2022/01/20 14:07:40;;;;;;;;;;;;;;;;;;6212141;23;19915;-79
2022/01/20 14:10:06;;;;;;;;;;;;;;;;;;6184521;23;20219;-79
2022/01/20 14:12:32;;;;;;;;;;;;;;;;;;6212210;23;19908;-79
2022/01/20 14:14:58;;;;;;;;;;;;;;;;;;6210968;23;19911;-79
2022/01/20 14:17:24;;;;;;;;;;;;;;;;;;6211873;23;19904;-79
2022/01/20 14:19:57;;;;;;;;;;;;;;;;;;6210524;23;19931;-79
2022/01/20 14:22:22;;;;;;;;;;;;;;;;;;6213184;23;19907;-79
2022/01/20 14:24:48;;;;;;;;;;;;;;;;;;6211025;23;19939;-79
2022/01/20 14:27:16;;;;;;;;;;;;;;;;;;6212088;23;19904;-79
2022/01/20 14:29:42;;;;;;;;;;;;;;;;;;6207610;23;19908;-79
2022/01/20 14:32:08;;;;;;;;;;;;;;;;;;6211027;23;19987;-79
2022/01/20 14:34:34;;;;;;;;;;;;;;;;;;6208241;23;19931;-79
2022/01/20 14:37:00;;;;;;;;;;;;;;;;;;6211682;23;20338;-78
2022/01/20 14:39:26;;;;;;;;;;;;;;;;;;6213068;23;19983;-79
2022/01/20 14:41:52;;;;;;;;;;;;;;;;;;6213549;23;19908;-79
2022/01/20 14:44:18;;;;;;;;;;;;;;;;;;6210809;23;19907;-79
2022/01/20 14:46:44;;;;;;;;;;;;;;;;;;6213530;23;19934;-78
2022/01/20 14:49:10;;;;;;;;;;;;;;;;;;6209541;23;19954;-79
2022/01/20 14:51:36;;;;;;;;;;;;;;;;;;6213185;23;20272;-78
2022/01/20 14:54:02;;;;;;;;;;;;;;;;;;6182730;23;19904;-78
2022/01/20 14:56:28;;;;;;;;;;;;;;;;;;6212676;23;19904;-78
2022/01/20 14:58:53;;;;;;;;;;;;;;;;;;6211626;23;19911;-79
2022/01/20 15:01:19;;;;;;;;;;;;;;;;;;6211580;23;20242;-79
2022/01/20 15:03:45;;;;;;;;;;;;;;;;;;6209603;23;19966;-78
2022/01/20 15:06:11;;;;;;;;;;;;;;;;;;6212157;23;19908;-79
2022/01/20 15:08:37;;;;;;;;;;;;;;;;;;6214820;23;19903;-79
2022/01/20 15:11:03;;;;;;;;;;;;;;;;;;6214391;23;19911;-80
2022/01/20 15:13:29;;;;;;;;;;;;;;;;;;6214817;23;19910;-79
2022/01/20 15:15:55;;;;;;;;;;;;;;;;;;6214069;23;19957;-79
2022/01/20 15:18:21;;;;;;;;;;;;;;;;;;6215895;23;19904;-79
2022/01/20 15:20:46;;;;;;;;;;;;;;;;;;6217362;23;19908;-79
2022/01/20 15:23:12;;;;;;;;;;;;;;;;;;6215105;23;19915;-79
2022/01/20 16:20:10;;;;;;;;;;;;;;;;;;6192444;22;20296;-78
2022/01/20 16:22:36;;;;;;;;;;;;;;;;;;6215714;23;19983;-75
2022/01/20 16:25:02;;;;;;;;;;;;;;;;;;6189420;23;20065;-75
2022/01/20 16:27:28;;;;;;;;;;;;;;;;;;6189607;23;19904;-81
2022/01/20 16:29:55;;;;;;;;;;;;;;;;;;6216126;23;19927;-81
2022/01/20 16:32:20;;;;;;;;;;;;;;;;;;6215931;23;19900;-75
2022/01/20 16:34:46;;;;;;;;;;;;;;;;;;6216112;23;19915;-74
2022/01/20 16:37:12;;;;;;;;;;;;;;;;;;6216343;23;19904;-77
2022/01/20 16:39:38;;;;;;;;;;;;;;;;;;6216280;23;19904;-77
2022/01/20 16:42:04;;;;;;;;;;;;;;;;;;6216060;23;20249;-76
2022/01/20 16:44:30;;;;;;;;;;;;;;;;;;6215503;23;19904;-77
2022/01/20 16:46:56;;;;;;;;;;;;;;;;;;6216188;23;19914;-76
2022/01/20 16:49:22;;;;;;;;;;;;;;;;;;6215620;23;19911;-77
2022/01/20 16:51:48;;;;;;;;;;;;;;;;;;6215788;23;19936;-76
2022/01/20 16:54:14;;;;;;;;;;;;;;;;;;6216344;23;19904;-76
2022/01/20 16:56:40;;;;;;;;;;;;;;;;;;6215704;23;19979;-76
2022/01/20 16:59:05;;;;;;;;;;;;;;;;;;6215969;23;20381;-76
2022/01/20 17:01:31;;;;;;;;;;;;;;;;;;6212257;23;19951;-76
2022/01/20 17:03:57;;;;;;;;;;;;;;;;;;6214771;23;19923;-76
2022/01/20 17:06:23;;;;;;;;;;;;;;;;;;6213484;23;19908;-76
2022/01/20 17:08:49;;;;;;;;;;;;;;;;;;6214127;23;20230;-77
2022/01/20 17:11:15;;;;;;;;;;;;;;;;;;6215515;23;19904;-76
2022/01/20 17:13:41;;;;;;;;;;;;;;;;;;6214651;23;19915;-76
2022/01/20 17:16:07;;;;;;;;;;;;;;;;;;6215234;23;19903;-76
2022/01/20 17:18:33;;;;;;;;;;;;;;;;;;6215606;23;20309;-76
2022/01/20 17:20:59;;;;;;;;;;;;;;;;;;6215711;23;19966;-76
2022/01/20 17:23:28;;;;;;;;;;;;;;;;;;6215759;23;19915;-76
2022/01/20 17:25:54;;;;;;;;;;;;;;;;;;6215756;23;20187;-77
2022/01/20 17:28:20;;;;;;;;;;;;;;;;;;6214839;23;19986;-76
2022/01/20 17:30:46;;;;;;;;;;;;;;;;;;6215486;23;19981;-76
2022/01/20 17:33:11;;;;;;;;;;;;;;;;;;6215913;23;19911;-76
2022/01/20 17:35:37;;;;;;;;;;;;;;;;;;6215704;23;19907;-77
2022/01/20 17:38:03;;;;;;;;;;;;;;;;;;6189070;23;20286;-76
2022/01/20 17:40:31;;;;;;;;;;;;;;;;;;6215760;23;19961;-75
2022/01/20 17:42:57;;;;;;;;;;;;;;;;;;6215554;23;19908;-77
2022/01/20 17:45:22;;;;;;;;;;;;;;;;;;6215903;23;19907;-76
2022/01/20 17:47:49;;;;;;;;;;;;;;;;;;6214532;23;19908;-76
2022/01/20 17:50:15;;;;;;;;;;;;;;;;;;6215256;23;19915;-76
2022/01/20 17:52:41;;;;;;;;;;;;;;;;;;6214732;23;19904;-76
2022/01/20 17:55:07;;;;;;;;;;;;;;;;;;6215887;23;20325;-76
2022/01/20 17:57:33;;;;;;;;;;;;;;;;;;6214868;23;20234;-76
2022/01/20 17:59:59;;;;;;;;;;;;;;;;;;6214765;23;19908;-77
2022/01/20 18:02:25;;;;;;;;;;;;;;;;;;6215179;23;19908;-76
2022/01/20 18:04:51;;;;;;;;;;;;;;;;;;6214822;23;19919;-82
2022/01/20 18:07:17;;;;;;;;;;;;;;;;;;6188571;23;20345;-82
2022/01/20 18:09:42;;;;;;;;;;;;;;;;;;6214842;23;19915;-80
2022/01/20 18:12:08;;;;;;;;;;;;;;;;;;6215280;23;19911;-76
2022/01/20 18:14:34;;;;;;;;;;;;;;;;;;6188822;23;19904;-79
2022/01/20 18:17:00;;;;;;;;;;;;;;;;;;6214983;23;20285;-78
2022/01/20 18:19:26;;;;;;;;;;;;;;;;;;6214903;23;20261;-78
2022/01/20 18:21:52;;;;;;;;;;;;;;;;;;6188313;23;19916;-77
2022/01/20 18:24:18;;;;;;;;;;;;;;;;;;6215316;23;19919;-77
2022/01/20 18:26:44;;;;;;;;;;;;;;;;;;6214511;23;20214;-78
2022/01/20 18:29:10;;;;;;;;;;;;;;;;;;6215576;23;19904;-76
2022/01/20 18:31:36;;;;;;;;;;;;;;;;;;6215744;23;19990;-77
2022/01/20 18:34:02;;;;;;;;;;;;;;;;;;6214199;23;19911;-80
2022/01/20 18:36:28;;;;;;;;;;;;;;;;;;6213858;23;19926;-75
2022/01/20 18:38:54;;;;;;;;;;;;;;;;;;6212440;23;19904;-76
2022/01/20 18:41:20;;;;;;;;;;;;;;;;;;6213827;23;19908;-77
2022/01/20 18:43:46;;;;;;;;;;;;;;;;;;6214062;23;19904;-76
2022/01/20 18:46:12;;;;;;;;;;;;;;;;;;6187634;23;19915;-76